Terminal Aerodrome Forecast
Issued by NWS Boston, MA

Current Version | Previous Version | Text Only | Print | Product List | Glossary On
Versions: 1 2 3 4 5 6 7 8 9 10 11 12 13 14 15 16 17 18 19 20 21 22 23 24 25 26 27 28 29 30 31 32 33
000
FTUS41 KBOX 301739
TAFORH
TAF
KORH 301739Z 3018/0118 07005KT 3SM -RA BR OVC002
     FM010200 04006KT 2SM BR OVC002
     FM011100 01008KT 3SM -RA BR OVC003
     FM011700 03009KT 6SM -RA BR OVC008=

USA.gov is the U.S. government's official web portal to all federal, state and local government web resources and services.